createdAt,value
2019-02-24T00:02:08.538Z,70.51
2019-02-24T00:04:35.064Z,70.85
2019-02-24T00:07:01.572Z,72.42
2019-02-24T00:09:28.003Z,72.56
2019-02-24T00:11:54.435Z,71.67
2019-02-24T00:14:20.863Z,71.13
2019-02-24T00:16:47.289Z,71.04
2019-02-24T00:19:13.704Z,71.88
2019-02-24T00:21:40.193Z,71.43
2019-02-24T00:24:06.617Z,71.44
2019-02-24T00:26:33.092Z,72.19
2019-02-24T00:28:59.551Z,71.90
2019-02-24T00:31:25.976Z,71.07
2019-02-24T00:33:52.399Z,71.00
2019-02-24T00:36:18.930Z,71.56
2019-02-24T00:38:45.361Z,71.63
2019-02-24T00:41:11.822Z,71.42
2019-02-24T00:43:38.240Z,71.15
2019-02-24T00:46:04.765Z,71.82
2019-02-24T00:48:31.195Z,70.98
2019-02-24T00:50:57.622Z,71.65
2019-02-24T00:53:24.095Z,71.52
2019-02-24T00:55:50.601Z,71.89
2019-02-24T00:58:17.026Z,71.72
2019-02-24T01:00:43.453Z,71.91
2019-02-24T01:03:09.879Z,72.24
2019-02-24T01:05:36.807Z,72.29
2019-02-24T01:08:03.711Z,73.05
2019-02-24T01:10:30.541Z,73.07
2019-02-24T01:12:57.344Z,72.96
2019-02-24T01:15:23.909Z,73.05
2019-02-24T01:17:50.340Z,73.01
2019-02-24T01:20:16.766Z,72.90
2019-02-24T01:22:43.190Z,72.83
2019-02-24T01:25:10.007Z,72.63
2019-02-24T01:27:36.536Z,72.15
2019-02-24T01:30:04.178Z,72.70
2019-02-24T01:32:30.611Z,72.94
2019-02-24T01:34:57.120Z,72.70
2019-02-24T01:37:23.545Z,72.87
2019-02-24T01:39:49.978Z,72.76
2019-02-24T01:42:16.448Z,73.21
2019-02-24T01:44:43.059Z,72.97
2019-02-24T01:47:09.486Z,72.30
2019-02-24T01:49:35.915Z,72.39
2019-02-24T01:52:02.645Z,72.99
2019-02-24T01:54:29.078Z,72.72
2019-02-24T01:56:55.893Z,72.62
2019-02-24T01:59:22.317Z,72.65
2019-02-24T02:01:48.748Z,72.57
2019-02-24T02:04:15.171Z,72.56
2019-02-24T02:06:41.721Z,72.92
2019-02-24T02:09:08.414Z,73.09
2019-02-24T02:11:34.846Z,72.77
2019-02-24T02:14:01.281Z,72.78
2019-02-24T02:16:27.720Z,72.37
2019-02-24T02:18:54.145Z,73.29
2019-02-24T02:21:20.902Z,72.75
2019-02-24T02:23:47.314Z,72.83
2019-02-24T02:26:13.766Z,73.35
2019-02-24T02:28:44.014Z,73.48
2019-02-24T02:31:08.572Z,73.30
2019-02-24T02:33:35.044Z,72.88
2019-02-24T02:36:01.546Z,73.07
2019-02-24T02:38:27.974Z,73.09
2019-02-24T02:40:54.404Z,73.53
2019-02-24T02:43:20.863Z,73.18
2019-02-24T02:45:47.389Z,72.85
2019-02-24T02:48:13.824Z,72.85
2019-02-24T02:50:40.247Z,72.42
2019-02-24T02:53:06.692Z,73.25
2019-02-24T02:55:33.216Z,73.70
2019-02-24T02:57:59.724Z,72.95
2019-02-24T03:00:30.896Z,72.24
2019-02-24T03:02:57.431Z,73.00
2019-02-24T03:05:23.966Z,72.67
2019-02-24T03:07:52.271Z,72.95
2019-02-24T03:10:18.701Z,72.71
2019-02-24T03:12:45.135Z,72.71
2019-02-24T03:15:11.660Z,73.73
2019-02-24T03:17:38.090Z,73.19
2019-02-24T03:20:04.618Z,73.01
2019-02-24T03:22:31.051Z,73.07
2019-02-24T03:24:57.487Z,72.61
2019-02-24T03:27:23.935Z,72.88
2019-02-24T03:29:50.396Z,72.20
2019-02-24T03:32:16.822Z,73.14
2019-02-24T03:34:43.322Z,72.63
2019-02-24T03:37:09.741Z,73.21
2019-02-24T03:39:36.165Z,73.69
2019-02-24T03:42:02.594Z,73.38
2019-02-24T03:44:29.052Z,73.12
2019-02-24T03:46:55.493Z,72.94
2019-02-24T03:49:21.913Z,72.68
2019-02-24T03:51:48.360Z,73.68
2019-02-24T03:54:14.758Z,73.12
2019-02-24T03:56:41.230Z,73.05
2019-02-24T03:59:15.186Z,73.75
2019-02-24T04:01:36.258Z,73.39
2019-02-24T04:04:02.781Z,73.71
2019-02-24T04:06:29.317Z,74.59
2019-02-24T04:08:55.813Z,74.53
2019-02-24T04:11:22.258Z,74.11
2019-02-24T04:13:48.665Z,74.62
2019-02-24T04:16:15.154Z,74.40
2019-02-24T04:18:41.591Z,74.71
2019-02-24T04:21:08.007Z,74.35
2019-02-24T04:23:34.441Z,74.39
2019-02-24T04:26:00.885Z,74.79
2019-02-24T04:28:27.307Z,75.11
2019-02-24T04:30:53.743Z,74.93
2019-02-24T04:33:20.244Z,74.71
2019-02-24T04:35:46.747Z,74.57
2019-02-24T04:38:13.179Z,74.67
2019-02-24T04:40:39.607Z,74.61
2019-02-24T04:43:06.038Z,74.62
2019-02-24T04:45:32.552Z,74.23
2019-02-24T04:47:58.974Z,74.06
2019-02-24T04:50:25.405Z,74.20
2019-02-24T04:52:51.835Z,74.09
2019-02-24T04:55:18.288Z,74.11
2019-02-24T04:57:44.715Z,74.22
2019-02-24T05:00:11.238Z,74.37
2019-02-24T05:02:37.663Z,74.82
2019-02-24T05:05:04.808Z,74.85
2019-02-24T05:07:31.332Z,75.71
2019-02-24T05:09:57.831Z,76.88
2019-02-24T05:12:24.253Z,77.11
2019-02-24T05:14:50.782Z,77.44
2019-02-24T05:17:17.208Z,77.53
2019-02-24T05:19:43.630Z,77.42
2019-02-24T05:22:10.057Z,77.55
2019-02-24T05:24:36.522Z,77.06
2019-02-24T05:27:02.944Z,76.82
2019-02-24T05:29:29.376Z,76.96
2019-02-24T05:31:55.787Z,76.15
2019-02-24T05:34:22.249Z,76.48
2019-02-24T05:36:48.709Z,76.29
2019-02-24T05:39:15.135Z,76.61
2019-02-24T05:41:41.558Z,76.64
2019-02-24T05:44:07.987Z,77.32
2019-02-24T05:46:34.490Z,76.58
2019-02-24T05:49:00.915Z,76.43
2019-02-24T05:51:27.340Z,77.13
2019-02-24T05:53:53.768Z,76.59
2019-02-24T05:56:20.257Z,76.58
2019-02-24T05:58:46.684Z,77.45
2019-02-24T06:01:13.105Z,76.28
2019-02-24T06:03:39.528Z,76.44
2019-02-24T06:06:06.065Z,76.15
2019-02-24T06:08:32.591Z,76.01
2019-02-24T06:10:59.057Z,76.76
2019-02-24T06:13:25.473Z,77.13
2019-02-24T06:15:51.934Z,76.88
2019-02-24T06:18:18.356Z,77.46
2019-02-24T06:20:44.779Z,76.86
2019-02-24T06:23:11.208Z,76.74
2019-02-24T06:25:37.673Z,76.86
2019-02-24T06:28:04.094Z,77.10
2019-02-24T06:30:30.529Z,77.26
2019-02-24T06:32:56.954Z,77.20
2019-02-24T06:35:23.398Z,76.78
2019-02-24T06:37:49.861Z,76.49
2019-02-24T06:40:16.288Z,76.29
2019-02-24T06:42:42.716Z,76.59
2019-02-24T06:45:09.209Z,76.08
2019-02-24T06:47:35.631Z,75.60
2019-02-24T06:50:02.157Z,75.21
2019-02-24T06:52:28.592Z,75.48
2019-02-24T06:54:55.071Z,74.77
2019-02-24T06:57:21.498Z,75.20
2019-02-24T06:59:47.940Z,74.54
2019-02-24T07:02:14.387Z,75.53
2019-02-24T07:04:40.929Z,75.17
2019-02-24T07:07:07.716Z,75.78
2019-02-24T07:09:34.214Z,75.03
2019-02-24T07:12:00.690Z,75.79
2019-02-24T07:14:27.161Z,75.43
2019-02-24T07:16:53.608Z,74.40
2019-02-24T07:19:20.045Z,73.77
2019-02-24T07:21:46.478Z,73.87
2019-02-24T07:24:12.992Z,73.36
2019-02-24T07:26:39.580Z,73.03
2019-02-24T07:29:06.087Z,72.92
2019-02-24T07:31:32.517Z,73.70
2019-02-24T07:33:58.963Z,73.54
2019-02-24T07:36:25.474Z,73.51
2019-02-24T07:38:52.055Z,73.38
2019-02-24T07:41:18.855Z,72.82
2019-02-24T07:43:45.295Z,70.91
2019-02-24T07:46:11.831Z,69.36
2019-02-24T07:48:38.264Z,68.87
2019-02-24T07:51:04.797Z,68.94
2019-02-24T07:53:31.270Z,68.62
2019-02-24T07:55:57.751Z,68.59
2019-02-24T07:58:24.238Z,68.33
2019-02-24T08:00:50.680Z,69.61
2019-02-24T08:03:17.220Z,70.30
2019-02-24T08:05:43.752Z,70.25
2019-02-24T08:08:16.198Z,71.01
2019-02-24T08:10:38.674Z,71.60
2019-02-24T08:13:05.281Z,71.62
2019-02-24T08:15:31.799Z,72.43
2019-02-24T08:17:58.317Z,72.77
2019-02-24T08:20:24.741Z,72.66
2019-02-24T08:22:51.177Z,71.82
2019-02-24T08:25:17.726Z,71.58
2019-02-24T08:27:49.055Z,71.12
2019-02-24T08:30:15.482Z,71.38
2019-02-24T08:32:41.914Z,70.80
2019-02-24T08:35:08.372Z,70.78
2019-02-24T08:37:34.804Z,70.57
2019-02-24T08:40:01.229Z,69.94
2019-02-24T08:42:27.658Z,71.20
2019-02-24T08:44:54.144Z,70.49
2019-02-24T08:47:20.603Z,70.76
2019-02-24T08:49:47.047Z,69.91
2019-02-24T08:52:13.480Z,70.20
2019-02-24T08:54:39.949Z,69.73
2019-02-24T08:57:06.385Z,69.46
2019-02-24T08:59:32.814Z,69.45
2019-02-24T09:01:59.250Z,68.70
2019-02-24T09:04:25.678Z,69.04
2019-02-24T09:06:52.105Z,69.43
2019-02-24T09:09:18.778Z,69.46
2019-02-24T09:11:45.237Z,69.27
2019-02-24T09:14:11.736Z,68.49
2019-02-24T09:16:38.249Z,68.03
2019-02-24T09:19:04.804Z,67.83
2019-02-24T09:21:31.302Z,68.32
2019-02-24T09:23:57.726Z,67.35
2019-02-24T09:26:24.186Z,67.09
2019-02-24T09:28:51.027Z,67.93
2019-02-24T09:31:17.537Z,67.79
2019-02-24T09:33:43.953Z,68.41
2019-02-24T09:36:10.443Z,67.96
2019-02-24T09:38:36.878Z,67.01
2019-02-24T09:41:03.302Z,66.37
2019-02-24T09:43:29.723Z,65.87
2019-02-24T09:45:56.219Z,66.59
2019-02-24T09:48:22.690Z,64.76
2019-02-24T09:50:49.111Z,64.57
2019-02-24T09:53:17.340Z,64.32
2019-02-24T09:55:43.854Z,64.73
2019-02-24T09:58:10.278Z,64.22
2019-02-24T10:00:36.704Z,64.35
2019-02-24T10:03:03.123Z,63.75
2019-02-24T10:05:29.591Z,63.62
2019-02-24T10:07:56.182Z,63.76
2019-02-24T10:10:22.640Z,63.13
2019-02-24T10:12:49.062Z,63.56
2019-02-24T10:15:15.525Z,62.93
2019-02-24T10:17:42.033Z,62.74
2019-02-24T10:20:09.828Z,62.37
2019-02-24T10:22:36.244Z,62.18
2019-02-24T10:25:05.966Z,62.91
2019-02-24T10:27:32.799Z,62.32
2019-02-24T10:29:59.226Z,62.39
2019-02-24T10:32:25.656Z,61.69
2019-02-24T10:34:52.112Z,61.79
2019-02-24T10:37:18.527Z,61.85
2019-02-24T10:39:44.955Z,61.45
2019-02-24T10:42:11.381Z,61.52
2019-02-24T10:44:37.845Z,60.73
2019-02-24T10:47:04.271Z,61.07
2019-02-24T10:49:30.945Z,61.61
2019-02-24T10:51:57.366Z,60.87
2019-02-24T10:54:23.884Z,60.48
2019-02-24T10:56:50.317Z,61.44
2019-02-24T10:59:16.979Z,61.70
2019-02-24T11:01:43.549Z,60.11
2019-02-24T11:04:09.979Z,59.22
2019-02-24T11:06:36.463Z,59.81
2019-02-24T11:09:05.104Z,59.71
2019-02-24T11:11:31.672Z,60.86
2019-02-24T11:13:58.102Z,60.43
2019-02-24T11:16:24.553Z,59.71
2019-02-24T11:18:50.985Z,58.82
2019-02-24T11:21:17.480Z,58.66
2019-02-24T11:23:44.075Z,58.71
2019-02-24T11:26:10.599Z,58.52
2019-02-24T11:28:37.016Z,57.83
2019-02-24T11:31:03.535Z,57.76
2019-02-24T11:33:30.024Z,58.18
2019-02-24T11:35:56.792Z,56.34
2019-02-24T11:38:23.216Z,57.12
2019-02-24T11:40:49.637Z,56.69
2019-02-24T11:43:16.056Z,56.98
2019-02-24T11:45:42.575Z,56.61
2019-02-24T11:48:09.298Z,57.20
2019-02-24T11:50:35.817Z,57.07
2019-02-24T11:53:02.382Z,55.62
2019-02-24T11:55:28.822Z,55.85
2019-02-24T11:57:55.253Z,56.74
2019-02-24T12:00:21.672Z,56.30
2019-02-24T12:02:48.096Z,57.50
2019-02-24T12:05:14.673Z,56.67
2019-02-24T12:07:41.390Z,55.99
2019-02-24T12:10:10.226Z,55.16
2019-02-24T12:12:36.751Z,55.66
2019-02-24T12:15:06.170Z,55.74
2019-02-24T12:17:32.752Z,55.48
2019-02-24T12:19:59.273Z,55.66
2019-02-24T12:22:25.776Z,55.45
2019-02-24T12:24:52.462Z,55.45
2019-02-24T12:27:19.309Z,55.01
2019-02-24T12:29:45.839Z,55.49
2019-02-24T12:32:12.268Z,54.80
2019-02-24T12:34:38.722Z,55.11
2019-02-24T12:37:05.185Z,54.43
2019-02-24T12:39:31.619Z,53.55
2019-02-24T12:41:58.052Z,53.55
2019-02-24T12:44:24.482Z,55.76
2019-02-24T12:46:50.908Z,54.36
2019-02-24T12:49:17.330Z,53.89
2019-02-24T12:51:43.801Z,55.28
2019-02-24T12:54:10.278Z,55.28
2019-02-24T12:56:36.732Z,54.25
2019-02-24T12:59:03.178Z,52.53
2019-02-24T13:01:29.616Z,52.90
2019-02-24T13:03:57.161Z,53.27
2019-02-24T13:06:23.799Z,54.45
2019-02-24T13:08:50.336Z,52.50
2019-02-24T13:11:16.854Z,53.84
2019-02-24T13:13:43.288Z,52.77
2019-02-24T13:16:09.738Z,52.25
2019-02-24T13:18:36.921Z,51.95
2019-02-24T13:21:04.041Z,52.25
2019-02-24T13:23:30.673Z,51.00
2019-02-24T13:25:57.255Z,52.97
2019-02-24T13:28:23.690Z,52.14
2019-02-24T13:30:50.209Z,53.83
2019-02-24T13:33:16.758Z,53.80
2019-02-24T13:35:43.264Z,52.37
2019-02-24T13:38:09.691Z,52.53
2019-02-24T13:40:36.235Z,53.49
2019-02-24T13:43:02.666Z,52.05
2019-02-24T13:45:29.196Z,52.24
2019-02-24T13:47:55.747Z,50.94
2019-02-24T13:50:22.171Z,51.66
2019-02-24T13:52:48.698Z,51.17
2019-02-24T13:55:15.404Z,50.58
2019-02-24T13:57:42.056Z,50.40
2019-02-24T14:00:11.698Z,50.31
2019-02-24T14:02:38.131Z,50.29
2019-02-24T14:05:04.756Z,50.29
2019-02-24T14:07:31.177Z,50.23
2019-02-24T14:09:57.705Z,49.13
2019-02-24T14:12:24.175Z,48.98
2019-02-24T14:14:50.808Z,50.76
2019-02-24T14:17:17.229Z,49.01
2019-02-24T14:19:43.677Z,48.57
2019-02-24T14:22:10.115Z,48.42
2019-02-24T14:24:36.631Z,49.22
2019-02-24T14:27:03.063Z,49.25
2019-02-24T14:29:29.758Z,48.09
2019-02-24T14:31:56.186Z,48.25
2019-02-24T14:34:22.602Z,48.67
2019-02-24T14:36:49.047Z,49.39
2019-02-24T14:39:15.576Z,49.87
2019-02-24T14:41:41.996Z,50.23
2019-02-24T14:44:08.414Z,49.03
2019-02-24T14:46:34.966Z,47.88
2019-02-24T14:49:01.386Z,49.27
2019-02-24T14:51:27.832Z,48.31
2019-02-24T14:53:54.334Z,49.35
2019-02-24T14:56:20.783Z,48.12
2019-02-24T14:58:47.211Z,49.58
2019-02-24T15:01:13.671Z,49.21
2019-02-24T15:03:40.095Z,49.63
2019-02-24T15:06:06.920Z,48.09
2019-02-24T15:08:33.343Z,47.63
2019-02-24T15:11:00.022Z,48.26
2019-02-24T15:13:26.483Z,48.45
2019-02-24T15:15:52.973Z,48.15
2019-02-24T15:18:19.418Z,48.19
2019-02-24T15:20:45.830Z,47.73
2019-02-24T15:23:14.597Z,48.80
2019-02-24T15:25:41.071Z,47.87
2019-02-24T15:28:07.495Z,48.29
2019-02-24T15:30:36.865Z,47.88
2019-02-24T15:33:03.601Z,47.30
2019-02-24T15:35:30.067Z,47.00
2019-02-24T15:37:56.478Z,47.10
2019-02-24T15:40:22.917Z,48.40
2019-02-24T15:42:49.954Z,46.93
2019-02-24T15:45:16.624Z,47.31
2019-02-24T15:47:43.047Z,47.96
2019-02-24T15:50:11.074Z,48.15
2019-02-24T15:52:37.497Z,47.86
2019-02-24T15:55:06.884Z,47.48
2019-02-24T15:57:33.302Z,47.40
2019-02-24T15:59:59.724Z,47.30
2019-02-24T16:02:26.284Z,47.42
2019-02-24T16:04:52.799Z,47.55
2019-02-24T16:07:19.257Z,48.35
2019-02-24T16:09:45.775Z,48.95
2019-02-24T16:12:12.302Z,48.96
2019-02-24T16:14:38.734Z,48.40
2019-02-24T16:17:05.154Z,49.18
2019-02-24T16:19:31.578Z,48.04
2019-02-24T16:21:57.995Z,47.79
2019-02-24T16:24:24.495Z,47.75
2019-02-24T16:26:50.916Z,47.77
2019-02-24T16:29:17.339Z,48.76
2019-02-24T16:31:43.765Z,48.45
2019-02-24T16:34:10.342Z,49.11
2019-02-24T16:36:36.839Z,49.34
2019-02-24T16:39:03.757Z,47.38
2019-02-24T16:41:30.198Z,47.61
2019-02-24T16:43:56.636Z,46.84
2019-02-24T16:46:23.088Z,47.43
2019-02-24T16:48:49.510Z,48.73
2019-02-24T16:51:15.938Z,48.53
2019-02-24T16:53:42.470Z,48.94
2019-02-24T16:56:10.027Z,48.58
2019-02-24T16:58:36.467Z,49.47
2019-02-24T17:01:03.412Z,49.22
2019-02-24T17:03:29.943Z,49.94
2019-02-24T17:05:56.789Z,50.05
2019-02-24T17:08:23.222Z,50.49
2019-02-24T17:10:49.867Z,50.54
2019-02-24T17:13:16.399Z,50.62
2019-02-24T17:15:42.933Z,51.15
2019-02-24T17:18:09.470Z,51.30
2019-02-24T17:20:36.010Z,51.55
2019-02-24T17:23:02.644Z,50.99
2019-02-24T17:25:29.289Z,51.08
2019-02-24T17:27:55.816Z,51.11
2019-02-24T17:30:23.866Z,51.16
2019-02-24T17:32:50.629Z,51.42
2019-02-24T17:35:17.179Z,51.32
2019-02-24T17:37:43.904Z,51.48
2019-02-24T17:40:19.325Z,51.68
2019-02-24T17:42:45.886Z,51.70
2019-02-24T17:45:13.245Z,52.03
2019-02-24T17:47:39.880Z,52.51
2019-02-24T17:50:09.795Z,52.35
2019-02-24T17:52:36.642Z,52.23
2019-02-24T17:55:05.316Z,51.96
2019-02-24T17:57:32.372Z,51.69
2019-02-24T17:59:58.908Z,51.96
2019-02-24T18:02:25.443Z,51.63
2019-02-24T18:04:52.186Z,51.63
2019-02-24T18:07:18.721Z,51.44
2019-02-24T18:09:45.669Z,51.15
2019-02-24T18:12:12.202Z,51.81
2019-02-24T18:14:38.666Z,51.68
2019-02-24T18:17:05.274Z,51.68
2019-02-24T18:19:31.813Z,52.73
2019-02-24T18:21:58.229Z,53.40
2019-02-24T18:24:24.885Z,53.07
2019-02-24T18:26:51.318Z,53.65
2019-02-24T18:29:17.749Z,53.65
2019-02-24T18:31:44.170Z,52.64
2019-02-24T18:34:10.585Z,52.64
2019-02-24T18:36:37.155Z,52.39
2019-02-24T18:39:04.831Z,51.88
2019-02-24T18:41:31.348Z,52.02
2019-02-24T18:43:57.775Z,52.65
2019-02-24T18:46:24.238Z,52.65
2019-02-24T18:48:50.759Z,54.40
2019-02-24T18:51:17.194Z,54.59
2019-02-24T18:53:43.727Z,54.69
2019-02-24T18:56:10.264Z,54.63
2019-02-24T18:58:36.798Z,55.87
2019-02-24T19:01:05.024Z,54.47
2019-02-24T19:03:31.508Z,53.56
2019-02-24T19:05:57.967Z,53.39
2019-02-24T19:08:24.475Z,53.65
2019-02-24T19:10:51.010Z,53.31
2019-02-24T19:13:17.650Z,53.60
2019-02-24T19:15:44.102Z,53.08
2019-02-24T19:18:10.525Z,53.26
2019-02-24T19:20:37.053Z,53.09
2019-02-24T19:23:03.588Z,53.20
2019-02-24T19:25:30.125Z,53.32
2019-02-24T19:27:56.660Z,53.04
2019-02-24T19:30:23.094Z,52.87
2019-02-24T19:32:49.528Z,53.45
2019-02-24T19:35:17.502Z,53.24
2019-02-24T19:37:44.035Z,52.74
2019-02-24T19:40:13.441Z,52.77
2019-02-24T19:42:40.486Z,52.77
2019-02-24T19:45:09.990Z,52.56
2019-02-24T19:47:36.423Z,52.43
2019-02-24T19:50:05.541Z,52.79
2019-02-24T19:52:32.055Z,52.78
2019-02-24T19:54:58.590Z,52.82
2019-02-24T19:57:25.025Z,53.12
2019-02-24T19:59:51.770Z,52.90
2019-02-24T20:02:18.201Z,53.26
2019-02-24T20:04:44.742Z,53.12
2019-02-24T20:07:11.578Z,53.26
2019-02-24T20:09:38.017Z,53.69
2019-02-24T20:12:04.650Z,53.14
2019-02-24T20:14:31.185Z,53.00
2019-02-24T20:16:57.618Z,53.30
2019-02-24T20:19:24.055Z,53.22
2019-02-24T20:21:50.588Z,53.06
2019-02-24T20:24:17.127Z,54.99
2019-02-24T20:26:43.662Z,57.44
2019-02-24T20:29:11.326Z,58.71
2019-02-24T20:31:37.760Z,60.00
2019-02-24T20:34:04.190Z,59.45
2019-02-24T20:36:30.725Z,59.49
2019-02-24T20:38:57.162Z,59.31
2019-02-24T20:41:23.908Z,59.46
2019-02-24T20:43:50.436Z,59.14
2019-02-24T20:46:16.989Z,60.35
2019-02-24T20:48:43.510Z,61.38
2019-02-24T20:51:09.943Z,60.16
2019-02-24T20:53:36.477Z,59.23
2019-02-24T20:56:03.218Z,58.89
2019-02-24T20:58:29.657Z,59.16
2019-02-24T21:00:56.188Z,60.01
2019-02-24T21:03:22.755Z,59.79
2019-02-24T21:05:49.366Z,59.99
2019-02-24T21:08:15.903Z,61.14
2019-02-24T21:10:42.742Z,61.59
2019-02-24T21:13:09.282Z,61.29
2019-02-24T21:15:35.817Z,60.54
2019-02-24T21:18:04.102Z,60.92
2019-02-24T21:20:32.981Z,61.94
2019-02-24T21:23:01.783Z,62.18
2019-02-24T21:25:28.327Z,62.87
2019-02-24T21:27:55.050Z,62.48
2019-02-24T21:30:23.386Z,62.48
2019-02-24T21:32:49.931Z,62.47
2019-02-24T21:35:17.456Z,62.23
2019-02-24T21:37:44.165Z,62.21
2019-02-24T21:40:18.807Z,61.88
2019-02-24T21:42:45.530Z,61.85
2019-02-24T21:45:21.454Z,62.01
2019-02-24T21:47:48.024Z,62.64
2019-02-24T21:50:15.791Z,61.45
2019-02-24T21:52:42.424Z,61.49
2019-02-24T21:55:09.882Z,61.85
2019-02-24T21:57:36.316Z,62.07
2019-02-24T22:00:06.445Z,62.04
2019-02-24T22:02:32.972Z,63.23
2019-02-24T22:05:03.911Z,63.33
2019-02-24T22:07:31.882Z,63.45
2019-02-24T22:09:58.418Z,62.63
2019-02-24T22:12:25.054Z,63.37
2019-02-24T22:14:51.592Z,62.74
2019-02-24T22:17:18.130Z,62.84
2019-02-24T22:19:44.662Z,62.84
2019-02-24T22:22:11.199Z,62.53
2019-02-24T22:24:37.734Z,63.05
2019-02-24T22:27:04.171Z,63.28
2019-02-24T22:29:30.911Z,63.07
2019-02-24T22:31:59.133Z,62.99
2019-02-24T22:34:25.619Z,62.41
2019-02-24T22:36:52.053Z,62.23
2019-02-24T22:39:18.491Z,62.57
2019-02-24T22:41:46.763Z,62.58
2019-02-24T22:44:13.300Z,63.45
2019-02-24T22:46:39.834Z,63.44
2019-02-24T22:49:06.268Z,63.43
2019-02-24T22:51:33.321Z,64.04
2019-02-24T22:53:59.879Z,63.42
2019-02-24T22:56:26.490Z,63.44
2019-02-24T22:58:52.923Z,63.91
2019-02-24T23:01:22.062Z,63.73
2019-02-24T23:03:48.558Z,64.39
2019-02-24T23:06:15.092Z,64.67
2019-02-24T23:08:41.638Z,64.35
2019-02-24T23:11:08.268Z,64.30
2019-02-24T23:13:34.802Z,63.98
2019-02-24T23:16:01.437Z,63.70
2019-02-24T23:18:27.877Z,63.45
2019-02-24T23:20:54.407Z,63.74
2019-02-24T23:23:20.943Z,64.79
2019-02-24T23:25:47.480Z,63.81
2019-02-24T23:28:14.017Z,63.66
2019-02-24T23:30:40.452Z,63.92
2019-02-24T23:33:06.886Z,64.38
2019-02-24T23:35:33.520Z,64.51
2019-02-24T23:37:59.958Z,64.35
2019-02-24T23:40:26.387Z,64.32
2019-02-24T23:42:52.821Z,65.12
2019-02-24T23:45:19.278Z,65.56
2019-02-24T23:47:45.790Z,65.16
2019-02-24T23:50:12.224Z,65.67
2019-02-24T23:52:40.197Z,65.07
2019-02-24T23:55:07.858Z,64.98
2019-02-24T23:57:34.292Z,64.79
